Time;durP1;ratioP1;P1;durP2;ratioP2;P2;SDS_P1;SDS_P2;PMS_P1;PMS_P2;Temp;Humidity;BMP_temperature;BMP_pressure;BME280_temperature;BME280_humidity;BME280_pressure;Samples;Min_cycle;Max_cycle;Signal;HPM_P1;HPM_P2
2023/09/13 00:00:58;;;;;;;;;;;;;;;20.11;47.08;99905.34;3143300;28;19967;-69
2023/09/13 00:02:28;;;;;;;;;;;;;;;20.09;46.86;99912.59;3133071;28;19928;-69
2023/09/13 00:04:02;;;;;;;;;;;;;;;20.10;46.78;99911.63;3142919;28;20539;-69
2023/09/13 00:05:33;;;;;;;;;;;;;;;20.12;46.75;99911.50;3151609;28;19946;-70
2023/09/13 00:07:04;;;;;;;;;;;;;;;20.10;46.72;99908.97;3141106;28;19928;-69
2023/09/13 00:08:36;;;;;;;;;;;;;;;20.08;46.69;99908.25;3141117;28;19932;-70
2023/09/13 00:10:07;;;;;;;;;;;;;;;20.08;46.83;99908.25;3140848;28;20411;-70
2023/09/13 00:11:39;;;;;;;;;;;;;;;20.09;46.69;99915.22;3141053;28;19982;-70
2023/09/13 00:13:09;;;;;;;;;;;;;;;20.10;46.66;99914.25;3139423;28;19982;-70
2023/09/13 00:14:41;;;;;;;;;;;;;;;20.08;46.67;99910.06;3150075;28;20022;-69
2023/09/13 00:16:12;;;;;;;;;;;;;;;20.07;46.61;99919.81;3140893;28;19928;-69
2023/09/13 00:17:43;;;;;;;;;;;;;;;20.06;46.65;99918.13;3140816;28;19928;-69
2023/09/13 00:19:16;;;;;;;;;;;;;;;20.06;46.50;99914.66;3140715;28;20539;-69
2023/09/13 00:20:47;;;;;;;;;;;;;;;20.05;46.49;99918.25;3141000;28;20265;-70
2023/09/13 00:22:19;;;;;;;;;;;;;;;20.02;46.52;99916.69;3147342;28;19932;-69
2023/09/13 00:23:50;;;;;;;;;;;;;;;20.02;46.60;99918.50;3150063;28;19993;-69
2023/09/13 00:25:21;;;;;;;;;;;;;;;20.03;46.65;99917.56;3153591;28;19998;-69
2023/09/13 00:26:52;;;;;;;;;;;;;;;20.02;46.49;99921.97;3152474;28;19934;-69
2023/09/13 00:28:24;;;;;;;;;;;;;;;20.03;46.63;99926.31;3134684;28;19928;-69
2023/09/13 00:29:54;;;;;;;;;;;;;;;20.03;46.41;99917.56;3146652;28;19951;-69
2023/09/13 00:31:26;;;;;;;;;;;;;;;20.03;46.51;99917.56;3136317;28;19929;-69
2023/09/13 00:32:56;;;;;;;;;;;;;;;20.00;46.45;99924.75;3146955;28;19989;-69
2023/09/13 00:34:31;;;;;;;;;;;;;;;19.98;46.58;99921.41;3140391;28;20015;-69
2023/09/13 00:36:01;;;;;;;;;;;;;;;19.98;46.70;99925.84;3140827;28;19986;-69
2023/09/13 00:37:33;;;;;;;;;;;;;;;19.97;46.58;99927.66;3140216;28;19929;-69
2023/09/13 00:39:04;;;;;;;;;;;;;;;19.96;46.60;99927.78;3140889;28;19928;-70
2023/09/13 00:40:36;;;;;;;;;;;;;;;19.96;46.75;99922.47;3151106;28;19932;-69
2023/09/13 00:42:06;;;;;;;;;;;;;;;19.95;46.68;99926.09;3151201;28;19928;-68
2023/09/13 00:43:38;;;;;;;;;;;;;;;19.95;46.66;99928.75;3137249;28;20602;-68
2023/09/13 00:45:09;;;;;;;;;;;;;;;19.94;46.68;99925.28;3140487;28;19951;-68
2023/09/13 00:46:41;;;;;;;;;;;;;;;19.93;46.80;99915.63;3140449;28;20011;-68
2023/09/13 00:48:12;;;;;;;;;;;;;;;19.91;46.64;99930.81;3140610;28;20295;-68
2023/09/13 00:49:45;;;;;;;;;;;;;;;19.89;47.00;99923.97;3140413;28;19935;-68
2023/09/13 00:51:17;;;;;;;;;;;;;;;19.90;46.87;99930.91;3140419;28;19943;-68
2023/09/13 00:52:47;;;;;;;;;;;;;;;19.90;46.90;99931.75;3140446;28;19935;-69
2023/09/13 00:54:19;;;;;;;;;;;;;;;19.90;47.12;99929.09;3143476;28;19928;-69
2023/09/13 00:55:51;;;;;;;;;;;;;;;19.87;47.08;99929.38;3150500;28;20309;-69
2023/09/13 00:57:23;;;;;;;;;;;;;;;19.86;47.17;99926.88;3140934;28;19936;-69
2023/09/13 00:58:54;;;;;;;;;;;;;;;19.87;47.17;99929.38;3148017;28;19929;-69
2023/09/13 01:00:27;;;;;;;;;;;;;;;19.87;47.18;99931.16;3148802;28;20038;-69
2023/09/13 01:01:57;;;;;;;;;;;;;;;19.84;47.11;99924.31;3134932;28;20451;-69
2023/09/13 01:03:29;;;;;;;;;;;;;;;19.85;47.18;99936.59;3139621;28;19929;-69
2023/09/13 01:05:01;;;;;;;;;;;;;;;19.86;47.07;99926.88;3150747;28;20850;-69
2023/09/13 01:06:34;;;;;;;;;;;;;;;19.86;47.08;99929.50;3139800;28;20298;-69
2023/09/13 01:08:05;;;;;;;;;;;;;;;19.83;47.07;99925.31;3140335;28;19935;-69
2023/09/13 01:09:36;;;;;;;;;;;;;;;19.84;47.26;99931.41;3149024;28;19932;-69
2023/09/13 01:11:07;;;;;;;;;;;;;;;19.81;47.21;99929.03;3152148;28;19993;-68
2023/09/13 01:12:39;;;;;;;;;;;;;;;19.80;47.29;99927.38;3142711;28;19940;-68
2023/09/13 01:14:09;;;;;;;;;;;;;;;19.80;47.31;99933.47;3138303;28;19928;-67
2023/09/13 01:15:44;;;;;;;;;;;;;;;19.78;47.28;99933.59;3145315;28;19928;-68
2023/09/13 01:17:16;;;;;;;;;;;;;;;19.77;47.43;99928.44;3152419;28;20005;-68
2023/09/13 01:18:52;;;;;;;;;;;;;;;19.77;47.30;99931.94;3148546;28;19928;-68
2023/09/13 01:20:33;;;;;;;;;;;;;;;19.77;47.15;99934.56;3140312;28;20019;-67
2023/09/13 01:22:11;;;;;;;;;;;;;;;19.77;47.13;99929.28;3140117;28;20303;-66
2023/09/13 01:23:51;;;;;;;;;;;;;;;19.77;47.20;99931.09;3140091;28;19929;-66
2023/09/13 01:25:30;;;;;;;;;;;;;;;19.78;47.31;99932.75;3139096;28;19928;-66
2023/09/13 01:27:07;;;;;;;;;;;;;;;19.77;47.23;99934.56;3132977;28;20671;-66
2023/09/13 01:28:41;;;;;;;;;;;;;;;19.76;47.44;99932.91;3139835;28;19936;-67
2023/09/13 01:30:12;;;;;;;;;;;;;;;19.75;47.29;99933.00;3139638;28;20288;-67
2023/09/13 01:31:44;;;;;;;;;;;;;;;19.70;47.37;99936.03;3134210;28;20007;-69
2023/09/13 01:33:14;;;;;;;;;;;;;;;19.67;47.42;99933.66;3139896;28;20934;-69
2023/09/13 01:34:46;;;;;;;;;;;;;;;19.64;47.42;99931.22;3141341;28;20409;-71
2023/09/13 01:36:17;;;;;;;;;;;;;;;19.60;47.66;99940.34;3152783;28;19954;-71
2023/09/13 01:37:48;;;;;;;;;;;;;;;19.58;47.78;99938.78;3143328;28;20054;-71
2023/09/13 01:39:20;;;;;;;;;;;;;;;19.54;47.53;99938.19;3152414;28;19944;-70
2023/09/13 01:40:51;;;;;;;;;;;;;;;19.52;47.81;99940.97;3140297;28;20731;-71
2023/09/13 01:42:24;;;;;;;;;;;;;;;19.50;47.71;99940.25;3140090;28;19928;-70
2023/09/13 01:43:57;;;;;;;;;;;;;;;19.49;47.83;99938.59;3129405;28;19936;-68
2023/09/13 01:45:29;;;;;;;;;;;;;;;19.49;47.99;99940.34;3137233;28;19993;-69
2023/09/13 01:47:03;;;;;;;;;;;;;;;19.48;47.77;99939.53;3139785;28;20346;-68
2023/09/13 01:48:34;;;;;;;;;;;;;;;19.47;48.00;99940.50;3139926;28;19928;-68
2023/09/13 01:50:07;;;;;;;;;;;;;;;19.47;47.89;99937.03;3148337;28;19928;-68
2023/09/13 01:51:38;;;;;;;;;;;;;;;19.46;47.99;99940.59;3152421;28;19928;-69
2023/09/13 01:53:10;;;;;;;;;;;;;;;19.44;47.95;99943.38;3152552;28;19928;-69
2023/09/13 01:54:41;;;;;;;;;;;;;;;19.40;48.00;99935.81;3151988;28;19981;-69
2023/09/13 01:56:13;;;;;;;;;;;;;;;19.36;48.25;99931.75;3147483;28;20419;-69
2023/09/13 01:57:43;;;;;;;;;;;;;;;19.35;48.24;99930.09;3143865;28;19980;-69
2023/09/13 01:59:16;;;;;;;;;;;;;;;19.37;48.03;99936.06;3135370;28;20340;-70
2023/09/13 02:00:48;;;;;;;;;;;;;;;19.37;48.09;99933.41;3144785;28;19929;-69
2023/09/13 02:02:19;;;;;;;;;;;;;;;19.35;48.17;99933.56;3139152;28;20009;-67
2023/09/13 02:03:50;;;;;;;;;;;;;;;19.33;48.00;99931.03;3141114;28;19993;-69
2023/09/13 02:05:21;;;;;;;;;;;;;;;19.32;48.10;99933.81;3151742;28;19976;-70
2023/09/13 02:06:53;;;;;;;;;;;;;;;19.29;48.15;99931.41;3139818;28;20552;-70
2023/09/13 02:08:23;;;;;;;;;;;;;;;19.23;48.26;99935.38;3139680;28;19928;-70
2023/09/13 02:09:55;;;;;;;;;;;;;;;19.18;48.39;99934.88;3151228;28;19928;-69
2023/09/13 02:11:26;;;;;;;;;;;;;;;19.18;48.32;99934.88;3141430;28;20107;-69
2023/09/13 02:12:58;;;;;;;;;;;;;;;19.19;48.37;99941.00;3139765;28;20460;-69
2023/09/13 02:14:30;;;;;;;;;;;;;;;19.18;48.30;99940.16;3136007;28;19990;-69
2023/09/13 02:16:02;;;;;;;;;;;;;;;19.15;48.23;99932.50;3139753;28;19936;-66
2023/09/13 02:17:32;;;;;;;;;;;;;;;19.10;48.38;99940.75;3139745;28;20173;-66
2023/09/13 02:19:04;;;;;;;;;;;;;;;19.06;48.50;99943.78;3146234;28;19928;-67
2023/09/13 02:20:35;;;;;;;;;;;;;;;19.01;48.51;99943.28;3152280;28;20031;-66
2023/09/13 02:22:07;;;;;;;;;;;;;;;18.94;48.50;99936.81;3152513;28;19935;-66
2023/09/13 02:23:41;;;;;;;;;;;;;;;18.90;48.73;99938.00;3154338;28;20138;-66
2023/09/13 02:25:13;;;;;;;;;;;;;;;18.85;48.69;99947.13;3150622;28;19981;-68
2023/09/13 02:26:43;;;;;;;;;;;;;;;18.85;48.84;99941.84;3145398;28;20070;-68
2023/09/13 02:28:15;;;;;;;;;;;;;;;18.88;48.82;99945.22;3152118;28;20325;-69
2023/09/13 02:29:48;;;;;;;;;;;;;;;18.88;48.48;99958.41;3141820;28;19929;-69
2023/09/13 02:31:22;;;;;;;;;;;;;;;18.86;48.60;99951.44;3140111;28;20298;-68
2023/09/13 02:32:53;;;;;;;;;;;;;;;18.83;48.71;99951.66;3137714;28;19936;-68
2023/09/13 02:34:25;;;;;;;;;;;;;;;18.82;48.53;99944.72;3142216;28;19928;-69
2023/09/13 02:35:56;;;;;;;;;;;;;;;18.81;48.62;99950.09;3142132;28;19941;-68
2023/09/13 02:37:33;;;;;;;;;;;;;;;18.76;48.69;99939.91;3147607;28;19928;-68
2023/09/13 02:39:04;;;;;;;;;;;;;;;18.73;48.81;99939.28;3146857;28;19925;-67
2023/09/13 02:40:37;;;;;;;;;;;;;;;18.72;48.77;99945.50;3147460;28;20023;-68
2023/09/13 02:42:08;;;;;;;;;;;;;;;18.69;48.79;99945.72;3155579;28;19935;-67
2023/09/13 02:43:40;;;;;;;;;;;;;;;18.64;48.98;99948.75;3150898;28;20381;-67
2023/09/13 02:45:13;;;;;;;;;;;;;;;18.64;48.83;99943.47;3143315;28;19971;-67
2023/09/13 02:46:43;;;;;;;;;;;;;;;18.64;48.90;99939.03;3155012;28;20042;-67
2023/09/13 02:48:15;;;;;;;;;;;;;;;18.65;48.77;99945.97;3159326;28;19935;-66
2023/09/13 02:49:45;;;;;;;;;;;;;;;18.65;48.75;99940.69;3153009;28;20402;-66
2023/09/13 02:51:17;;;;;;;;;;;;;;;18.66;48.70;99946.81;3152558;28;19928;-66
2023/09/13 02:52:47;;;;;;;;;;;;;;;18.68;48.54;99944.06;3159268;28;19935;-67
2023/09/13 02:54:20;;;;;;;;;;;;;;;18.68;48.62;99942.25;3155867;28;19929;-64
2023/09/13 02:55:52;;;;;;;;;;;;;;;18.69;48.71;99943.09;3149189;28;20421;-65
2023/09/13 02:57:24;;;;;;;;;;;;;;;18.70;48.52;99950.06;3158211;28;19928;-64
2023/09/13 02:58:54;;;;;;;;;;;;;;;18.70;48.55;99945.63;3144967;28;19932;-64
2023/09/13 03:00:27;;;;;;;;;;;;;;;18.71;48.49;99941.19;3155951;28;19924;-65
2023/09/13 03:01:58;;;;;;;;;;;;;;;18.70;48.59;99948.28;3134721;28;19929;-66
2023/09/13 03:03:29;;;;;;;;;;;;;;;18.70;48.47;99948.28;3146677;28;19931;-67
2023/09/13 03:05:01;;;;;;;;;;;;;;;18.71;48.38;99947.31;3158137;28;19982;-67
2023/09/13 03:06:31;;;;;;;;;;;;;;;18.69;48.35;99943.94;3159450;28;19931;-67
2023/09/13 03:08:03;;;;;;;;;;;;;;;18.65;48.48;99942.50;3148536;28;20644;-67
2023/09/13 03:09:34;;;;;;;;;;;;;;;18.62;48.63;99942.72;3155971;28;20029;-67
2023/09/13 03:11:10;;;;;;;;;;;;;;;18.60;48.62;99948.16;3142228;28;20409;-66
2023/09/13 03:12:40;;;;;;;;;;;;;;;18.56;48.64;99945.84;3143630;28;19925;-67
2023/09/13 03:14:12;;;;;;;;;;;;;;;18.55;48.84;99947.66;3142330;28;19925;-67
2023/09/13 03:15:44;;;;;;;;;;;;;;;18.53;48.57;99943.44;3140000;28;19931;-67
2023/09/13 03:17:15;;;;;;;;;;;;;;;18.50;48.99;99946.31;3151655;28;20019;-67
2023/09/13 03:18:48;;;;;;;;;;;;;;;18.48;48.71;99950.84;3159182;28;20470;-67
2023/09/13 03:20:19;;;;;;;;;;;;;;;18.46;48.93;99955.38;3154950;28;19976;-68
2023/09/13 03:21:50;;;;;;;;;;;;;;;18.47;48.67;99957.09;3149880;28;19935;-66
2023/09/13 03:23:21;;;;;;;;;;;;;;;18.47;48.76;99955.28;3159397;28;19928;-66
2023/09/13 03:24:53;;;;;;;;;;;;;;;18.50;48.86;99959.50;3152683;28;19932;-66
2023/09/13 03:26:24;;;;;;;;;;;;;;;18.51;48.83;99958.53;3146455;28;19939;-66
2023/09/13 03:27:55;;;;;;;;;;;;;;;18.49;48.76;99956.03;3146736;28;19924;-65
2023/09/13 03:29:27;;;;;;;;;;;;;;;18.51;48.88;99958.53;3141178;28;19935;-66
2023/09/13 03:30:59;;;;;;;;;;;;;;;18.49;48.86;99955.19;3145833;28;20420;-66
2023/09/13 03:32:30;;;;;;;;;;;;;;;18.48;48.92;99959.59;3146172;28;19925;-66
2023/09/13 03:34:02;;;;;;;;;;;;;;;18.47;49.02;99952.66;3145770;28;19943;-66
2023/09/13 03:35:32;;;;;;;;;;;;;;;18.44;49.11;99950.25;3145730;28;20020;-66
2023/09/13 03:37:04;;;;;;;;;;;;;;;18.38;49.13;99948.91;3146103;28;19928;-67
2023/09/13 03:38:37;;;;;;;;;;;;;;;18.37;49.08;99955.16;3154202;28;19928;-66
2023/09/13 03:40:09;;;;;;;;;;;;;;;18.33;49.36;99960.75;3145482;28;19932;-66
2023/09/13 03:41:40;;;;;;;;;;;;;;;18.27;49.44;99962.06;3148765;28;19924;-66
2023/09/13 03:43:11;;;;;;;;;;;;;;;18.22;49.47;99961.56;3153726;28;19928;-65
2023/09/13 03:44:43;;;;;;;;;;;;;;;18.18;49.59;99968.84;3151989;28;19931;-67
2023/09/13 03:46:15;;;;;;;;;;;;;;;18.18;49.61;99970.66;3150779;28;19928;-66
2023/09/13 03:47:47;;;;;;;;;;;;;;;18.14;49.65;99969.19;3154978;28;19986;-66
2023/09/13 03:49:19;;;;;;;;;;;;;;;18.10;49.94;99967.72;3149545;28;19943;-66
2023/09/13 03:50:49;;;;;;;;;;;;;;;18.08;49.82;99967.03;3156674;28;20011;-66
2023/09/13 03:52:21;;;;;;;;;;;;;;;18.05;49.91;99961.97;3146495;28;19935;-67
2023/09/13 03:53:51;;;;;;;;;;;;;;;18.03;50.05;99963.88;3146194;28;19978;-67
2023/09/13 03:55:23;;;;;;;;;;;;;;;17.97;50.15;99970.44;3146584;28;19924;-66
2023/09/13 03:56:55;;;;;;;;;;;;;;;17.89;50.25;99964.88;3145806;28;19925;-67
2023/09/13 03:58:25;;;;;;;;;;;;;;;17.81;50.58;99965.44;3157314;28;19928;-66
2023/09/13 03:59:57;;;;;;;;;;;;;;;17.77;50.87;99966.56;3143379;28;19925;-68
2023/09/13 04:01:29;;;;;;;;;;;;;;;17.75;50.79;99965.88;3141813;28;20588;-68
2023/09/13 04:03:00;;;;;;;;;;;;;;;17.77;50.77;99968.38;3152772;28;19971;-68
2023/09/13 04:04:31;;;;;;;;;;;;;;;17.76;50.53;99967.53;3141951;28;19986;-68
2023/09/13 04:06:03;;;;;;;;;;;;;;;17.79;50.64;99969.97;3151413;28;19992;-68
2023/09/13 04:07:33;;;;;;;;;;;;;;;17.80;50.73;99968.19;3158270;28;19928;-69
2023/09/13 04:09:06;;;;;;;;;;;;;;;17.79;50.63;99974.41;3142032;28;20062;-69
2023/09/13 04:10:36;;;;;;;;;;;;;;;17.77;50.65;99977.13;3145761;28;20364;-67
2023/09/13 04:12:08;;;;;;;;;;;;;;;17.74;50.59;99969.44;3138941;28;19929;-68
2023/09/13 04:13:40;;;;;;;;;;;;;;;17.77;50.57;99986.81;3152198;28;19924;-70
2023/09/13 04:15:10;;;;;;;;;;;;;;;17.80;50.69;99984.81;3140329;28;19925;-67
2023/09/13 04:16:43;;;;;;;;;;;;;;;17.81;50.53;99983.91;3151198;28;19928;-68
2023/09/13 04:18:14;;;;;;;;;;;;;;;17.80;50.67;99984.81;3133626;28;19924;-68
2023/09/13 04:19:45;;;;;;;;;;;;;;;17.70;51.25;99989.06;3145502;28;19957;-70
2023/09/13 04:21:17;;;;;;;;;;;;;;;17.62;51.42;99986.13;3155946;28;19935;-70
2023/09/13 04:22:48;;;;;;;;;;;;;;;17.60;51.33;99993.28;3147472;28;19986;-72
2023/09/13 04:24:19;;;;;;;;;;;;;;;17.56;51.59;99986.56;3145737;28;20011;-68
2023/09/13 04:25:50;;;;;;;;;;;;;;;17.53;51.73;99992.88;3156799;28;19935;-68
2023/09/13 04:27:21;;;;;;;;;;;;;;;17.50;51.61;99991.31;3157609;28;19932;-68
2023/09/13 04:28:52;;;;;;;;;;;;;;;17.51;51.82;99986.91;3148138;28;20008;-74
2023/09/13 04:30:24;;;;;;;;;;;;;;;17.46;51.91;99987.22;3137967;28;19929;-69
2023/09/13 04:31:55;;;;;;;;;;;;;;;17.47;51.88;99991.53;3149353;28;19924;-75
2023/09/13 04:33:49;;;;;;;;;;;;;;;17.49;51.79;99991.44;3149240;28;19925;-70
2023/09/13 04:35:21;;;;;;;;;;;;;;;17.47;52.11;99988.06;3144067;28;20419;-71
2023/09/13 04:36:54;;;;;;;;;;;;;;;17.49;51.83;99986.16;3147950;28;19928;-75
2023/09/13 04:38:24;;;;;;;;;;;;;;;17.51;51.94;99985.09;3148398;28;19924;-71
2023/09/13 04:39:56;;;;;;;;;;;;;;;17.58;51.85;99992.56;3148080;28;19924;-73
2023/09/13 04:41:27;;;;;;;;;;;;;;;17.64;51.77;99989.50;3146705;28;19982;-70
2023/09/13 04:43:13;;;;;;;;;;;;;;;17.68;51.61;99997.06;3146422;28;20023;-76
2023/09/13 04:44:44;;;;;;;;;;;;;;;17.73;51.44;99994.94;3144825;28;19928;-76
2023/09/13 04:46:15;;;;;;;;;;;;;;;17.76;51.44;99991.25;3152463;28;19924;-72
2023/09/13 04:47:48;;;;;;;;;;;;;;;17.75;51.65;99992.22;3157999;28;20409;-70
2023/09/13 04:49:40;;;;;;;;;;;;;;;17.73;51.61;99987.03;3137321;28;19979;-78
2023/09/13 04:51:10;;;;;;;;;;;;;;;17.75;51.58;99984.31;3143469;28;19924;-72
2023/09/13 04:52:42;;;;;;;;;;;;;;;17.81;51.38;99997.06;3152521;28;20397;-66
2023/09/13 04:54:13;;;;;;;;;;;;;;;17.83;51.48;99992.50;3153054;28;19969;-66
2023/09/13 04:55:45;;;;;;;;;;;;;;;17.86;51.35;99994.91;3139943;28;20397;-69
2023/09/13 04:57:17;;;;;;;;;;;;;;;17.89;51.29;99992.06;3150858;28;19934;-69
2023/09/13 04:58:48;;;;;;;;;;;;;;;17.89;51.44;99991.22;3157791;28;20581;-71
2023/09/13 05:00:19;;;;;;;;;;;;;;;17.88;51.31;99994.81;3141187;28;20003;-81
2023/09/13 05:01:51;;;;;;;;;;;;;;;17.88;51.38;99995.66;3143718;28;20372;-68
2023/09/13 05:03:23;;;;;;;;;;;;;;;17.88;51.23;99985.13;3144831;28;20262;-70
2023/09/13 05:04:55;;;;;;;;;;;;;;;17.87;51.61;99991.34;3144899;28;20017;-69
2023/09/13 05:06:26;;;;;;;;;;;;;;;17.83;51.65;99986.41;3146723;28;19925;-69
2023/09/13 05:07:58;;;;;;;;;;;;;;;17.78;51.86;99989.38;3145041;28;20317;-68
2023/09/13 05:09:30;;;;;;;;;;;;;;;17.80;51.64;99986.63;3152573;28;19939;-68
2023/09/13 05:11:03;;;;;;;;;;;;;;;17.81;51.76;99993.59;3157417;28;20023;-71
2023/09/13 05:12:33;;;;;;;;;;;;;;;17.76;51.87;99991.25;3150900;28;19968;-68
2023/09/13 05:14:11;;;;;;;;;;;;;;;17.76;52.04;99988.59;3140700;28;19925;-72
2023/09/13 05:15:42;;;;;;;;;;;;;;;17.81;51.90;99988.31;3137367;28;19929;-73
2023/09/13 05:17:14;;;;;;;;;;;;;;;17.82;51.78;99984.72;3145186;28;19929;-77
2023/09/13 05:18:48;;;;;;;;;;;;;;;17.76;52.13;99988.59;3148049;28;19928;-76
2023/09/13 05:20:18;;;;;;;;;;;;;;;17.73;52.38;99988.84;3154015;28;19929;-70
2023/09/13 05:21:51;;;;;;;;;;;;;;;17.69;52.44;99988.22;3144823;28;19935;-69
2023/09/13 05:23:23;;;;;;;;;;;;;;;17.68;52.55;99990.94;3146373;28;19940;-68
2023/09/13 05:24:53;;;;;;;;;;;;;;;17.69;52.23;99995.28;3157721;28;20412;-73
2023/09/13 05:26:25;;;;;;;;;;;;;;;17.69;52.58;99990.00;3157617;28;19925;-74
2023/09/13 05:27:56;;;;;;;;;;;;;;;17.68;52.67;99996.22;3156122;28;20389;-71
2023/09/13 05:29:27;;;;;;;;;;;;;;;17.72;52.64;99995.06;3146062;28;20069;-69
2023/09/13 05:30:58;;;;;;;;;;;;;;;17.77;52.52;99998.19;3138265;28;19979;-69
2023/09/13 05:32:30;;;;;;;;;;;;;;;17.74;52.72;100001.03;3143440;28;20015;-69
2023/09/13 05:34:02;;;;;;;;;;;;;;;17.73;52.89;99996.72;3145187;28;19925;-74
2023/09/13 05:35:33;;;;;;;;;;;;;;;17.71;53.10;99996.84;3145053;28;20001;-70
2023/09/13 05:37:04;;;;;;;;;;;;;;;17.73;53.39;99999.38;3143916;28;19929;-67
2023/09/13 05:38:36;;;;;;;;;;;;;;;17.79;53.22;100003.38;3142026;28;20156;-70
2023/09/13 05:40:07;;;;;;;;;;;;;;;17.89;53.08;100007.03;3149045;28;19925;-70
2023/09/13 05:41:38;;;;;;;;;;;;;;;18.01;53.14;100000.88;3144600;28;19925;-68
2023/09/13 05:43:09;;;;;;;;;;;;;;;18.14;52.73;99998.19;3153925;28;19947;-67
2023/09/13 05:44:41;;;;;;;;;;;;;;;18.29;52.52;99993.59;3145641;28;20387;-70
2023/09/13 05:46:11;;;;;;;;;;;;;;;18.46;52.40;99995.81;3138807;28;19936;-73
2023/09/13 05:47:43;;;;;;;;;;;;;;;18.61;51.87;100001.72;3144862;28;19948;-70
2023/09/13 05:49:17;;;;;;;;;;;;;;;18.71;52.05;100002.69;3134335;28;19928;-69
2023/09/13 05:50:48;;;;;;;;;;;;;;;18.89;51.65;100004.94;3144240;28;20485;-69
2023/09/13 05:52:20;;;;;;;;;;;;;;;19.03;51.23;99999.44;3141873;28;19929;-71
2023/09/13 05:53:50;;;;;;;;;;;;;;;19.13;51.18;100003.03;3148385;28;19936;-74
2023/09/13 05:55:22;;;;;;;;;;;;;;;19.22;50.91;100004.94;3144019;28;19932;-68
2023/09/13 05:56:54;;;;;;;;;;;;;;;19.36;50.83;99998.59;3144889;28;19937;-72
2023/09/13 05:58:25;;;;;;;;;;;;;;;19.51;50.44;100007.94;3153857;28;19935;-70
2023/09/13 05:59:56;;;;;;;;;;;;;;;19.64;50.08;100005.19;3153422;28;19950;-70
2023/09/13 06:01:28;;;;;;;;;;;;;;;19.70;50.19;99995.94;3144561;28;19924;-69
2023/09/13 06:02:59;;;;;;;;;;;;;;;19.80;50.11;100001.34;3144399;28;19936;-73
2023/09/13 06:04:32;;;;;;;;;;;;;;;19.84;49.78;100000.13;3139211;28;19924;-67
2023/09/13 06:06:02;;;;;;;;;;;;;;;19.87;49.76;99992.78;3143268;28;20323;-71
2023/09/13 06:07:34;;;;;;;;;;;;;;;19.91;49.73;99994.25;3152670;28;19928;-67
2023/09/13 06:09:06;;;;;;;;;;;;;;;20.03;49.22;99999.50;3148899;28;19924;-70
2023/09/13 06:10:37;;;;;;;;;;;;;;;20.08;49.14;99999.94;3132400;28;19939;-76
2023/09/13 06:12:08;;;;;;;;;;;;;;;20.18;48.94;100007.00;3155660;28;19924;-71
2023/09/13 06:13:39;;;;;;;;;;;;;;;20.33;48.62;100004.06;3146179;28;19985;-75
2023/09/13 06:15:11;;;;;;;;;;;;;;;20.48;48.52;100004.59;3142126;28;20008;-73
2023/09/13 06:16:41;;;;;;;;;;;;;;;20.59;48.28;100005.41;3135876;28;20007;-74
2023/09/13 06:18:13;;;;;;;;;;;;;;;20.65;48.08;100006.72;3149207;28;19933;-70
2023/09/13 06:19:47;;;;;;;;;;;;;;;20.70;48.09;100009.78;3148386;28;20324;-71
2023/09/13 06:21:19;;;;;;;;;;;;;;;20.81;47.88;100011.53;3150196;28;19952;-68
2023/09/13 06:22:50;;;;;;;;;;;;;;;20.85;47.68;100007.66;3144878;28;20615;-66
2023/09/13 06:24:21;;;;;;;;;;;;;;;20.86;47.60;100012.84;3144361;28;19929;-67
2023/09/13 06:25:52;;;;;;;;;;;;;;;20.85;47.53;100008.53;3144209;28;20321;-68
2023/09/13 06:27:23;;;;;;;;;;;;;;;20.87;47.53;100009.22;3144651;28;19935;-70
2023/09/13 06:28:54;;;;;;;;;;;;;;;20.91;47.35;100012.44;3144689;28;20490;-69
2023/09/13 06:30:27;;;;;;;;;;;;;;;20.99;47.33;100009.97;3139998;28;20050;-71
2023/09/13 06:31:59;;;;;;;;;;;;;;;21.09;47.08;100008.22;3145161;28;20474;-69
2023/09/13 06:33:30;;;;;;;;;;;;;;;21.20;46.87;100007.28;3152607;28;20470;-69
2023/09/13 06:35:03;;;;;;;;;;;;;;;21.34;46.58;100006.94;3146256;28;19928;-70
2023/09/13 06:36:34;;;;;;;;;;;;;;;21.51;46.46;100009.97;3150579;28;19980;-71
2023/09/13 06:38:06;;;;;;;;;;;;;;;21.64;46.22;100007.06;3144561;28;19925;-70
2023/09/13 06:39:37;;;;;;;;;;;;;;;21.73;46.06;100012.41;3151744;28;19927;-72
2023/09/13 06:41:11;;;;;;;;;;;;;;;21.77;46.15;100008.53;3150450;28;19924;-71
2023/09/13 06:42:45;;;;;;;;;;;;;;;21.82;46.15;100002.78;3144477;28;20076;-70
2023/09/13 06:44:18;;;;;;;;;;;;;;;21.94;46.00;100009.66;3137129;28;19928;-69
2023/09/13 06:45:52;;;;;;;;;;;;;;;22.07;46.24;100014.72;3140844;28;20015;-68
2023/09/13 06:47:31;;;;;;;;;;;;;;;22.23;46.06;100011.53;3144230;28;19989;-66
2023/09/13 06:49:13;;;;;;;;;;;;;;;22.40;45.86;100010.00;3142735;28;19924;-67
2023/09/13 06:50:52;;;;;;;;;;;;;;;22.55;46.01;100013.06;3142082;28;19935;-67
2023/09/13 06:52:27;;;;;;;;;;;;;;;22.69;46.18;100004.69;3145315;28;19928;-67
2023/09/13 06:54:05;;;;;;;;;;;;;;;22.97;46.04;100012.75;3140935;28;19924;-68
2023/09/13 06:55:36;;;;;;;;;;;;;;;23.22;45.77;100005.94;3143953;28;19935;-69
2023/09/13 06:57:11;;;;;;;;;;;;;;;23.32;45.82;100007.59;3144352;28;19925;-69
2023/09/13 06:58:50;;;;;;;;;;;;;;;23.55;45.87;100007.22;3156343;28;19924;-67
2023/09/13 07:00:47;;;;;;;;;;;;;;;23.89;45.48;100007.44;3142675;28;20015;-69
2023/09/13 07:02:18;;;;;;;;;;;;;;;24.12;44.83;100004.38;3133598;28;19928;-67
2023/09/13 07:04:07;;;;;;;;;;;;;;;24.28;44.62;100005.38;3144400;28;19935;-71
2023/09/13 07:07:41;;;;;;;;;;;;;;;25.04;44.29;100001.28;3144195;28;20421;-67
2023/09/13 07:09:24;;;;;;;;;;;;;;;25.39;43.63;99996.84;3142344;28;19928;-69
2023/09/13 07:11:14;;;;;;;;;;;;;;;25.62;43.05;100003.25;3152745;28;19943;-72
2023/09/13 07:12:45;;;;;;;;;;;;;;;25.83;42.93;99992.19;3144403;28;19932;-72
2023/09/13 07:14:17;;;;;;;;;;;;;;;25.97;42.65;99996.06;3153370;28;19935;-70
2023/09/13 07:15:47;;;;;;;;;;;;;;;26.17;42.35;100001.91;3152030;28;20418;-70
2023/09/13 07:17:19;;;;;;;;;;;;;;;26.38;42.09;99987.22;3156592;28;19932;-71
2023/09/13 07:18:50;;;;;;;;;;;;;;;26.57;41.28;99994.94;3155049;28;20313;-69
2023/09/13 07:20:22;;;;;;;;;;;;;;;26.65;41.11;99997.63;3146836;28;20440;-69
2023/09/13 07:21:53;;;;;;;;;;;;;;;26.81;41.22;99993.25;3153759;28;20327;-67
2023/09/13 07:23:26;;;;;;;;;;;;;;;27.12;40.44;99994.16;3146874;28;19954;-69
2023/09/13 07:24:57;;;;;;;;;;;;;;;27.47;40.17;99996.59;3157235;28;20381;-70
2023/09/13 07:26:28;;;;;;;;;;;;;;;27.77;39.82;99995.75;3157499;28;20014;-69
2023/09/13 07:28:00;;;;;;;;;;;;;;;27.76;39.11;99994.09;3159358;28;20332;-65
2023/09/13 07:29:31;;;;;;;;;;;;;;;27.90;38.90;99985.34;3149356;28;20474;-70
2023/09/13 07:31:06;;;;;;;;;;;;;;;28.03;38.40;99992.78;3145106;28;20011;-70
2023/09/13 07:32:37;;;;;;;;;;;;;;;28.28;38.40;99989.94;3146533;28;19924;-71
2023/09/13 07:34:08;;;;;;;;;;;;;;;28.50;38.05;99985.59;3150590;28;19924;-72
2023/09/13 07:35:39;;;;;;;;;;;;;;;28.54;37.58;99982.38;3153052;28;19936;-70
2023/09/13 07:37:11;;;;;;;;;;;;;;;28.29;37.82;99992.44;3156848;28;20429;-70
2023/09/13 07:38:44;;;;;;;;;;;;;;;28.52;37.80;99983.56;3150417;28;19951;-69
2023/09/13 07:40:16;;;;;;;;;;;;;;;28.79;37.18;99988.31;3142901;28;19971;-70
2023/09/13 07:41:46;;;;;;;;;;;;;;;28.85;36.75;99984.09;3145816;28;19929;-73
2023/09/13 07:43:18;;;;;;;;;;;;;;;29.03;36.69;99983.75;3157090;28;19928;-66
2023/09/13 07:44:49;;;;;;;;;;;;;;;29.15;36.24;99986.81;3145047;28;20392;-68
2023/09/13 07:46:22;;;;;;;;;;;;;;;29.26;36.21;99980.97;3145628;28;20039;-67
2023/09/13 07:47:53;;;;;;;;;;;;;;;29.31;35.74;99978.56;3146213;28;19935;-66
2023/09/13 07:49:25;;;;;;;;;;;;;;;29.51;35.37;99978.81;3146625;28;19929;-67
2023/09/13 07:50:57;;;;;;;;;;;;;;;29.62;35.15;99974.84;3143193;28;20389;-68
2023/09/13 07:52:27;;;;;;;;;;;;;;;29.81;34.88;99973.41;3140411;28;19982;-68
2023/09/13 07:54:04;;;;;;;;;;;;;;;30.10;34.96;99973.28;3150394;28;19928;-67
2023/09/13 07:55:34;;;;;;;;;;;;;;;30.54;34.62;99972.25;3152655;28;19928;-70
2023/09/13 07:57:06;;;;;;;;;;;;;;;30.97;34.17;99974.00;3145850;28;20389;-72
2023/09/13 07:58:36;;;;;;;;;;;;;;;31.28;33.61;99968.19;3157535;28;20009;-71
2023/09/13 08:00:08;;;;;;;;;;;;;;;31.57;33.11;99967.09;3147466;28;19929;-71
2023/09/13 08:01:39;;;;;;;;;;;;;;;31.92;32.81;99965.16;3146679;28;19928;-74